Date,TemperatureHighF,TemperatureAvgF,TemperatureLowF,DewpointHighF,DewpointAvgF,DewpointLowF,HumidityHigh,HumidityAvg,HumidityLow,PressureMaxIn,PressureMinIn,WindSpeedMaxMPH,WindSpeedAvgMPH,GustSpeedMaxMPH,PrecipitationSumIn
2012-1-1,56,39,30,49,34,23,96,83,60,30.08,29.70,39,10,39,0.03
2012-1-2,31,27,22,25,22,18,89,82,73,30.20,30.02,28,9,28,0.00
2012-1-3,26,20,16,18,14,10,87,77,67,30.39,30.20,23,6,23,0.00
2012-1-4,36,27,17,26,19,13,85,73,57,30.32,30.00,20,4,20,0.00
2012-1-5,46,36,26,32,27,24,91,73,47,30.13,29.91,16,4,16,0.00
2012-1-6,58,46,38,40,34,30,75,63,49,29.92,29.79,23,6,23,0.00
2012-1-7,51,42,33,38,34,28,86,73,52,30.20,29.78,16,4,16,0.00
2012-1-8,45,35,27,31,26,22,92,73,46,30.38,30.19,9,1,9,0.00
2012-1-9,48,35,26,32,26,22,89,71,48,30.31,30.06,13,1,13,0.00
2012-1-10,52,38,29,36,29,24,90,73,51,30.12,29.95,13,2,13,0.00
2012-1-11,44,37,27,44,35,25,97,93,81,29.95,29.43,11,1,11,0.19
2012-1-12,45,39,20,44,37,16,100,94,83,29.64,29.38,28,6,28,0.22
2012-1-13,21,19,17,16,14,10,87,82,75,30.11,29.63,33,10,33,0.00
2012-1-14,23,21,17,17,16,12,86,81,74,30.27,30.11,16,3,16,0.00
2012-1-15,30,19,9,21,14,6,90,80,66,30.55,30.27,12,1,12,0.00
2012-1-16,47,35,19,43,30,15,92,85,74,30.41,29.94,28,6,28,0.04
2012-1-17,58,46,31,54,42,27,96,88,79,30.08,29.58,38,11,38,0.59
2012-1-18,33,27,18,27,20,14,85,74,65,30.30,30.08,24,4,24,0.00
2012-1-19,32,25,14,28,21,8,89,84,76,30.19,29.92,19,6,19,0.01
2012-1-20,24,18,9,22,12,4,90,78,64,30.32,29.99,15,3,15,0.00
2012-1-21,29,26,22,25,22,19,92,87,81,30.31,29.95,17,4,17,0.00
2012-1-22,37,31,24,36,29,20,97,93,84,30.28,29.92,18,3,18,0.17
2012-1-23,60,47,37,53,42,32,97,85,72,29.99,29.59,36,10,36,0.46
2012-1-24,38,34,30,33,30,25,88,84,80,30.38,29.98,18,3,18,0.00
2012-1-25,35,31,26,31,27,22,92,86,80,30.41,30.18,0,0,0,0.05
2012-1-26,48,40,33,47,38,31,100,96,92,30.19,29.47,0,0,0,1.25
2012-1-27,47,37,33,46,35,31,97,93,86,30.09,29.44,0,0,0,0.11
2012-1-28,41,35,30,35,27,18,94,76,47,30.25,29.93,0,0,0,0.02
2012-1-29,44,32,25,30,24,20,86,70,53,30.32,30.03,0,0,0,0.00
2012-1-30,48,36,21,34,27,18,91,72,50,30.34,30.11,0,0,0,0.00
2012-1-31,62,51,45,46,37,31,89,59,43,30.15,30.01,0,0,0,0.03
2012-2-1,64,51,41,51,44,38,92,78,51,30.08,29.99,0,0,0,0.02
2012-2-2,47,39,29,39,34,27,93,84,67,30.44,30.06,0,0,0,0.00
2012-2-3,53,37,25,38,31,23,95,81,55,30.54,30.34,0,0,0,0.00
2012-2-4,40,38,35,37,35,33,95,88,81,30.35,30.13,0,0,0,0.18
2012-2-5,48,37,28,36,31,25,95,81,51,30.29,30.11,0,0,0,0.00
2012-2-6,51,35,22,35,27,20,95,75,44,30.28,30.14,0,0,0,0.01
2012-2-7,36,33,27,31,28,24,90,82,75,30.30,30.17,0,0,0,0.00
2012-2-8,34,31,23,31,27,21,95,86,79,30.33,30.27,0,0,0,0.09
2012-2-9,39,29,19,29,24,17,92,83,63,30.38,30.24,0,0,0,0.00
2012-2-10,33,30,28,29,25,21,94,82,68,30.24,29.90,0,0,0,0.02
2012-2-11,32,20,15,31,14,6,100,77,53,30.32,29.86,0,0,0,0.02
2012-2-12,32,22,15,21,15,9,82,73,55,30.35,30.27,0,0,0,0.01
2012-2-13,38,29,17,24,19,14,90,69,46,30.29,30.04,0,0,0,0.01
2012-2-14,36,34,32,34,30,22,95,87,66,30.13,29.91,0,0,0,0.13
2012-2-15,46,39,34,38,34,30,93,83,70,30.30,30.10,0,0,0,0.01
2012-2-16,49,44,40,48,41,36,96,91,85,30.16,29.97,0,0,0,0.26
2012-2-17,50,38,30,36,30,25,93,74,44,30.21,30.11,0,0,0,0.01
2012-2-18,49,37,28,35,28,22,88,71,51,30.18,30.05,0,0,0,0.00
2012-2-19,40,31,26,29,24,21,85,75,59,30.19,30.03,0,0,0,0.00
2012-2-20,44,32,23,29,24,20,92,73,52,30.39,30.18,0,0,0,0.00
2012-2-21,51,40,29,44,34,22,92,77,68,30.18,29.81,0,0,0,0.06
2012-2-22,56,46,38,37,35,33,89,70,45,29.86,29.42,0,0,0,0.00
2012-2-23,51,44,31,41,37,29,93,77,60,29.66,29.41,0,0,0,0.12
2012-2-24,49,40,32,43,34,27,100,83,59,29.90,29.35,0,0,0,0.00
2012-2-25,37,30,24,28,21,17,85,68,53,30.42,29.90,0,0,0,0.00
2012-2-26,49,32,17,27,20,15,91,65,34,30.50,30.25,0,0,0,0.00
2012-2-27,59,43,27,36,27,20,79,56,32,30.51,30.23,0,0,0,0.00
2012-2-28,53,38,21,35,26,18,95,65,36,30.53,30.10,0,0,0,0.01
2012-2-29,72,54,40,62,47,30,96,78,55,30.10,29.55,0,0,0,0.63
2012-3-1,49,41,33,37,32,29,88,72,60,29.92,29.65,0,0,0,0.00
2012-3-2,56,44,31,54,40,28,95,86,61,29.91,29.34,0,0,0,0.30
2012-3-3,44,37,32,36,29,24,83,73,59,29.86,29.58,0,0,0,0.00
2012-3-4,37,32,25,32,26,21,88,78,69,29.94,29.82,0,0,0,0.02
2012-3-5,36,30,23,28,23,19,92,77,56,30.50,29.91,0,0,0,0.00
2012-3-6,62,41,23,32,26,20,92,60,30,30.50,30.27,0,0,0,0.00
2012-3-7,70,56,42,48,38,26,61,51,44,30.36,30.14,0,0,0,0.00
2012-3-8,60,52,34,55,46,31,95,80,57,30.24,29.93,0,0,0,0.68
2012-3-9,46,37,29,32,26,19,91,67,42,30.54,30.23,0,0,0,0.00
2012-3-10,51,36,23,29,24,18,82,62,36,30.60,30.41,11,0,11,0.00
2012-3-11,69,49,28,42,32,23,85,56,31,30.44,30.26,0,0,0,0.00
2012-3-12,60,54,47,58,49,37,94,85,61,30.26,29.98,0,0,0,0.31
2012-3-13,75,63,51,61,55,47,95,77,49,30.13,30.00,0,0,0,0.01
2012-3-14,79,60,42,61,50,41,96,72,39,30.20,30.09,0,0,0,0.00
2012-3-15,68,61,56,62,56,50,94,83,70,30.16,30.05,0,0,0,0.02
2012-3-16,74,63,55,63,57,52,96,83,63,30.17,30.08,0,0,0,0.07
2012-3-17,77,62,48,62,55,47,97,80,54,30.21,30.09,0,0,0,0.01
2012-3-18,77,64,55,64,59,53,96,85,59,30.18,30.01,1,0,1,0.48
2012-3-19,79,66,54,68,61,54,98,85,60,30.13,30.04,0,0,0,0.01
2012-3-20,85,70,54,66,58,53,97,69,41,30.17,30.06,0,0,0,0.00
2012-3-21,85,70,58,65,57,53,88,66,38,30.18,30.06,0,0,0,0.00
2012-3-22,86,70,54,65,57,51,92,67,41,30.15,30.04,7,0,7,0.00
2012-3-23,76,65,58,65,60,54,96,84,59,30.06,29.82,24,1,24,0.07
2012-3-24,66,59,53,61,56,51,97,91,68,29.85,29.77,23,3,23,0.18
2012-3-25,62,55,48,58,53,47,97,92,84,30.00,29.83,14,3,14,0.00
2012-3-26,53,46,35,52,37,24,97,73,50,30.37,29.99,21,7,21,0.00
2012-3-27,61,45,28,37,28,23,83,56,30,30.39,30.02,16,3,16,0.00
2012-3-28,75,59,46,59,42,32,83,55,30,30.02,29.79,32,6,32,0.04
2012-3-29,61,50,41,47,40,35,80,67,51,30.09,29.93,18,5,18,0.00
2012-3-30,76,53,39,60,46,34,90,77,55,30.07,29.62,31,5,31,0.10
2012-3-31,50,46,42,46,41,39,92,84,75,29.97,29.79,14,4,14,0.00
2012-4-1,74,56,42,60,48,38,89,75,56,29.95,29.64,21,4,21,0.01
2012-4-2,66,52,42,49,40,37,84,66,38,30.00,29.72,17,3,17,0.00
2012-4-3,67,52,40,55,44,36,91,76,56,30.02,29.80,12,1,12,0.14
2012-4-4,67,56,47,52,44,31,92,67,31,29.89,29.78,21,1,21,0.00
2012-4-5,57,46,39,39,32,26,73,61,45,30.04,29.86,0,0,0,0.00
2012-4-6,62,48,33,38,31,24,90,57,31,30.27,30.04,0,0,0,0.00
2012-4-7,67,48,29,33,26,16,87,50,17,30.36,30.18,0,0,0,0.00
2012-4-8,66,54,42,49,35,22,75,50,24,30.18,30.09,0,0,0,0.00
2012-4-9,64,51,37,48,34,24,83,55,25,30.09,29.87,0,0,0,0.01
2012-4-10,51,43,36,32,28,24,70,55,43,30.07,29.89,0,0,0,0.00
2012-4-11,51,40,29,36,29,24,82,67,49,30.25,30.04,0,0,0,0.00
2012-4-12,63,48,30,41,32,27,91,59,32,30.30,30.14,0,0,0,0.00
2012-4-13,68,52,35,43,33,28,83,52,27,30.27,30.16,0,0,0,0.00
2012-4-14,56,51,43,55,47,35,100,84,61,30.19,29.99,0,0,0,0.63
2012-4-15,79,66,52,62,56,51,97,73,49,30.00,29.89,0,0,0,0.00
2012-4-16,77,68,52,63,55,43,74,64,42,30.19,29.84,0,0,0,0.00
2012-4-17,64,53,41,49,44,39,94,71,51,30.35,30.19,0,0,0,0.00
2012-4-18,70,56,43,51,42,37,86,61,38,30.27,30.06,0,0,0,0.00
2012-4-19,77,60,42,56,47,40,96,67,36,30.09,29.91,0,0,0,0.00
2012-4-20,78,63,46,58,51,43,91,67,46,29.91,29.69,0,0,0,0.00
2012-4-21,57,45,39,54,42,35,95,89,79,29.97,29.74,0,0,0,0.51
2012-4-22,50,43,37,42,37,33,92,80,65,29.97,29.85,0,0,0,0.00
2012-4-23,60,48,39,35,28,18,77,48,23,29.85,29.66,0,0,0,0.00
2012-4-24,65,50,36,34,27,23,62,43,26,29.75,29.62,0,0,0,0.00
2012-4-25,62,50,36,50,40,27,85,69,41,29.86,29.75,0,0,0,0.02
2012-4-26,66,56,48,61,52,41,97,87,70,29.98,29.63,0,0,0,0.58
2012-4-27,58,47,35,42,33,28,80,60,41,30.25,29.98,0,0,0,0.00
2012-4-28,51,46,42,40,33,24,86,62,43,30.30,30.06,0,0,0,0.16
2012-4-29,70,54,41,48,38,32,82,58,28,30.28,30.14,0,0,0,0.00
2012-4-30,84,68,53,64,50,32,95,54,38,30.16,29.86,0,0,0,0.60
2012-5-1,74,65,61,65,62,59,97,90,68,30.06,29.91,0,0,0,0.37
2012-5-2,87,73,60,71,65,59,97,78,52,30.01,29.89,0,0,0,0.32
2012-5-3,88,76,62,72,66,61,96,74,49,30.07,29.93,20,2,20,0.00
2012-5-4,83,70,61,71,65,59,97,85,62,30.01,29.87,19,2,19,0.35
2012-5-5,80,68,61,70,64,57,98,87,69,30.01,29.86,16,3,16,0.02
2012-5-6,83,68,52,68,56,49,92,68,45,30.06,29.91,11,1,11,0.00
2012-5-7,86,71,57,73,63,53,96,77,58,29.94,29.71,23,2,23,0.23
2012-5-8,73,66,60,65,61,53,97,85,56,29.85,29.75,18,2,18,0.08
2012-5-9,72,61,52,56,50,45,91,70,43,29.85,29.74,24,4,24,0.00
2012-5-10,67,56,45,48,43,35,93,66,34,30.04,29.83,27,4,27,0.00
2012-5-11,74,58,40,52,43,37,100,62,30,30.20,30.03,12,1,12,0.00
2012-5-12,75,61,46,52,46,40,93,62,31,30.28,30.17,15,1,15,0.00
2012-5-13,61,59,57,58,55,49,95,89,69,30.19,30.09,12,0,12,0.00
2012-5-14,76,63,54,63,57,52,96,82,57,30.10,29.97,12,1,12,0.00
2012-5-15,82,67,50,64,55,48,97,69,32,30.02,29.90,15,1,15,0.00
2012-5-16,80,66,53,65,54,40,90,66,48,30.09,29.90,22,4,22,0.00
2012-5-17,73,58,42,48,40,36,83,53,28,30.18,30.08,17,2,17,0.00
2012-5-18,83,63,43,54,45,39,88,56,22,30.14,30.04,10,0,10,0.00
2012-5-19,88,70,52,64,55,50,91,62,35,30.13,30.05,12,0,12,0.00
2012-5-20,89,73,57,64,57,53,90,61,33,30.17,30.00,10,1,10,0.00
2012-5-21,88,72,58,66,59,54,93,67,33,30.02,29.83,24,2,24,0.13
2012-5-22,73,65,60,63,58,54,92,80,65,29.94,29.86,15,3,18,0.05
2012-5-23,83,68,54,66,59,52,97,75,49,29.95,29.84,11,1,12,0.00
2012-5-24,86,73,58,68,63,57,96,73,50,29.94,29.83,18,2,18,0.00
2012-5-25,90,77,64,73,66,60,90,69,50,30.05,29.89,0,0,0,0.00
2012-5-26,94,81,68,76,69,66,93,70,46,30.12,30.01,0,0,0,0.00
2012-5-27,94,82,68,74,68,66,95,67,42,30.07,29.94,0,0,0,0.00
2012-5-28,94,82,68,74,70,66,94,69,46,29.97,29.82,0,0,0,0.00
2012-5-29,85,77,68,72,66,59,91,70,50,29.85,29.75,0,0,0,0.03
2012-5-30,86,73,62,62,55,45,93,58,29,29.83,29.76,0,0,0,0.00
2012-5-31,84,70,55,60,53,47,89,58,35,29.91,29.70,0,0,0,0.15
2012-6-1,67,61,54,65,58,48,97,90,79,29.80,29.56,0,0,0,0.44
2012-6-2,73,61,50,53,49,45,91,67,41,29.85,29.79,0,0,0,0.04
2012-6-3,80,66,51,59,52,47,92,63,39,29.86,29.76,0,0,0,0.00
2012-6-4,79,68,56,59,52,48,80,59,41,29.83,29.73,0,0,0,0.00
2012-6-5,68,60,52,57,52,49,91,73,60,29.95,29.83,0,0,0,0.00
2012-6-6,78,64,50,56,50,46,92,64,37,30.03,29.95,0,0,0,0.00
2012-6-7,83,67,51,57,51,47,89,60,31,30.08,30.01,0,0,0,0.00
2012-6-8,87,70,53,60,50,41,90,55,24,30.08,29.95,0,0,0,0.00
2012-6-9,90,74,56,60,53,46,85,52,28,30.02,29.93,0,0,0,0.00
2012-6-10,92,75,57,65,58,54,91,59,34,30.06,29.98,0,0,0,0.00
2012-6-11,76,72,68,72,66,60,96,83,66,29.99,29.88,0,0,0,0.35
2012-6-12,87,76,68,74,64,44,98,71,30,30.01,29.85,0,0,0,0.00
2012-6-13,80,68,58,57,50,42,81,54,28,30.13,30.01,0,0,0,0.00
2012-6-14,86,69,51,58,50,43,84,55,30,30.17,30.07,0,0,0,0.00
2012-6-15,92,74,58,69,60,52,87,63,39,30.16,30.08,0,0,0,0.00
2012-6-16,92,76,62,70,63,58,90,66,43,30.19,30.01,0,0,0,0.00
2012-6-17,73,70,69,70,67,64,96,89,79,30.02,29.87,0,0,0,0.59
2012-6-18,88,78,68,74,69,66,97,77,52,29.95,29.86,0,0,0,0.01
2012-6-19,91,81,70,72,67,64,89,65,43,30.09,29.95,0,0,0,0.00
2012-6-20,94,81,67,71,67,65,94,65,41,30.14,29.99,0,0,0,0.00
2012-6-21,94,83,72,71,66,63,85,61,38,30.01,29.83,0,0,0,0.00
2012-6-22,90,77,68,69,62,52,93,63,33,29.94,29.86,0,0,0,0.05
2012-6-23,90,77,64,63,57,52,81,53,31,30.03,29.92,0,0,0,0.00
2012-6-24,93,79,65,64,59,56,78,53,32,30.03,29.86,0,0,0,0.00
2012-6-25,82,73,62,63,55,44,78,54,34,29.99,29.82,0,0,0,0.00
2012-6-26,83,68,52,54,48,45,81,53,32,30.05,29.93,0,0,0,0.00
2012-6-27,89,73,54,57,52,49,85,52,29,30.04,29.89,0,0,0,0.00
2012-6-28,100,82,62,72,63,54,81,56,39,29.92,29.72,0,0,0,0.00
2012-6-29,100,87,77,77,73,68,81,63,40,29.84,29.70,0,0,0,0.00
2012-6-30,94,85,73,75,70,64,83,63,46,29.85,29.78,0,0,0,0.00
2012-7-1,96,78,66,77,69,63,96,78,45,30.04,29.84,0,0,0,0.39
2012-7-2,94,77,62,71,67,61,97,74,44,30.03,29.93,0,0,0,0.40
2012-7-3,95,83,70,76,71,68,95,70,47,29.97,29.84,0,0,0,0.00
2012-7-4,99,86,71,77,73,69,93,68,45,29.94,29.82,17,1,17,0.03
2012-7-5,99,82,72,77,70,66,88,69,39,29.98,29.87,26,2,26,0.01
2012-7-6,103,87,71,77,72,66,93,66,33,29.97,29.88,11,1,11,0.01
2012-7-7,104,89,74,79,73,67,93,63,34,29.94,29.84,19,1,19,0.00
2012-7-8,94,83,74,74,69,61,87,64,47,29.95,29.86,0,0,0,0.00
2012-7-9,92,79,65,63,58,50,84,53,26,30.01,29.94,14,0,14,0.00
2012-7-10,94,79,64,64,60,54,87,56,34,30.04,29.95,16,2,16,0.00
2012-7-11,94,81,68,62,56,51,61,43,27,30.08,30.00,15,2,15,0.00
2012-7-12,94,80,65,68,62,55,89,58,29,30.10,30.04,21,3,21,0.00
2012-7-13,87,76,68,68,63,57,85,66,49,30.13,30.06,21,3,21,0.00
2012-7-14,86,75,68,76,69,64,95,83,65,30.13,30.03,15,1,15,0.09
2012-7-15,90,78,72,75,71,68,94,80,56,30.11,29.97,0,0,0,0.09
2012-7-16,99,84,71,73,69,61,94,65,33,30.02,29.86,0,0,0,0.00
2012-7-17,100,86,74,75,72,70,90,65,42,29.90,29.79,0,0,0,0.00
2012-7-18,95,82,74,77,72,66,87,73,53,29.95,29.83,0,0,0,0.00
2012-7-19,85,76,70,75,71,68,95,86,68,29.96,29.84,0,0,0,0.25
2012-7-20,80,73,68,73,69,62,96,87,70,30.00,29.83,0,0,0,0.03
2012-7-21,88,74,64,69,63,60,89,70,46,30.08,29.99,0,0,0,0.03
2012-7-22,92,78,64,68,65,62,94,67,40,30.14,30.05,0,0,0,0.00
2012-7-23,94,82,74,76,71,66,81,70,49,30.08,29.88,0,0,0,0.00
2012-7-24,84,78,70,75,71,68,93,81,66,29.97,29.81,0,0,0,0.45
2012-7-25,92,78,62,76,66,56,89,66,47,29.97,29.72,14,1,14,0.45
2012-7-26,95,80,70,79,74,67,96,81,58,29.75,29.60,0,0,0,0.36
2012-7-27,92,79,71,75,70,64,97,76,46,29.86,29.73,0,0,0,0.03
2012-7-28,86,74,66,72,66,64,95,76,55,30.04,29.85,0,0,0,0.04
2012-7-29,89,75,63,70,63,60,95,69,42,30.09,29.98,0,0,0,0.00
2012-7-30,92,76,63,69,64,57,94,67,38,30.02,29.91,0,0,0,0.00
2012-7-31,92,78,64,69,65,62,93,67,39,29.93,29.82,0,0,0,0.00
2012-8-1,94,80,69,71,66,58,92,65,36,29.87,29.80,0,0,0,0.00
2012-8-2,96,79,64,68,63,60,92,62,33,29.90,29.82,0,0,0,0.00
2012-8-3,98,81,68,72,67,64,89,66,34,29.95,29.84,0,0,0,0.00
2012-8-4,95,81,71,78,72,66,88,74,54,30.00,29.89,0,0,0,0.00
2012-8-5,89,80,73,75,70,63,89,74,49,30.08,29.93,0,0,0,0.01
2012-8-6,93,77,59,65,60,54,92,60,29,30.12,29.98,0,0,0,0.00
2012-8-7,94,77,60,65,60,55,94,61,29,30.01,29.91,0,0,0,0.00
2012-8-8,98,80,64,73,64,60,89,63,32,29.96,29.86,0,0,0,0.03
2012-8-9,92,75,66,71,67,63,96,79,48,29.98,29.73,0,0,0,0.92
2012-8-10,80,69,62,69,63,54,97,82,56,29.82,29.65,0,0,0,1.07
2012-8-11,76,66,60,65,59,54,90,80,62,29.98,29.80,0,0,0,0.01
2012-8-12,84,70,58,66,60,55,95,73,41,30.03,29.97,0,0,0,0.02
2012-8-13,84,72,64,65,61,57,90,71,44,30.02,29.90,0,0,0,0.00
2012-8-14,83,71,65,69,65,62,95,81,59,29.91,29.84,0,0,0,0.04
2012-8-15,87,74,62,65,62,57,95,70,39,29.97,29.90,0,0,0,0.00
2012-8-16,89,75,61,67,62,59,94,68,41,30.01,29.79,0,0,0,0.00
2012-8-17,85,73,63,66,60,53,87,66,37,29.93,29.83,0,0,0,0.00
2012-8-18,86,69,57,61,55,50,88,64,33,29.99,29.87,0,0,0,0.00
2012-8-19,85,69,59,64,58,54,87,69,39,29.92,29.82,0,0,0,0.00
2012-8-20,84,68,53,61,55,49,96,67,33,29.98,29.88,0,0,0,0.01
2012-8-21,82,68,55,65,56,53,93,70,42,30.09,29.98,0,0,0,0.01
2012-8-22,89,71,54,62,56,52,94,64,33,30.15,30.06,0,0,0,0.01
2012-8-23,92,73,56,64,58,54,93,63,30,30.15,30.05,0,0,0,0.00
2012-8-24,94,76,59,64,58,54,91,60,29,30.13,30.01,0,0,0,0.00
2012-8-25,96,77,61,68,61,58,92,62,30,30.12,30.04,0,0,0,0.00
2012-8-26,94,77,62,67,60,55,88,59,29,30.16,30.00,0,0,0,0.00
2012-8-27,85,75,67,74,67,60,90,77,64,30.03,29.91,0,0,0,0.05
2012-8-28,90,75,62,68,63,58,93,69,39,30.04,29.97,0,0,0,0.06
2012-8-29,86,71,58,63,58,54,93,65,37,30.08,29.99,0,0,0,0.00
2012-8-30,93,72,54,60,55,47,93,60,25,30.12,30.02,0,0,0,0.00
2012-8-31,98,77,59,73,65,55,88,70,41,30.13,30.02,0,0,0,0.00
2012-9-1,88,78,73,78,73,69,96,84,66,30.08,29.97,0,0,0,0.43
2012-9-2,85,76,71,76,72,70,97,88,74,30.00,29.86,0,0,0,0.54
2012-9-3,80,75,71,74,71,70,96,88,76,29.91,29.85,0,0,0,0.04
2012-9-4,86,76,71,78,72,69,96,90,72,29.88,29.79,0,0,0,0.24
2012-9-5,87,75,68,74,69,66,96,82,56,29.89,29.77,0,0,0,0.24
2012-9-6,93,77,64,71,67,62,96,75,41,29.92,29.83,0,0,0,0.01
2012-9-7,90,76,67,73,68,65,97,78,46,29.92,29.63,0,0,0,0.01
2012-9-8,77,67,59,69,59,51,96,78,45,29.89,29.57,0,0,0,0.67
2012-9-9,76,62,52,58,53,50,94,75,48,30.06,29.87,0,0,0,0.00
2012-9-10,78,62,50,55,50,46,96,70,37,30.22,30.06,0,0,0,0.00
2012-9-11,82,64,48,57,51,47,96,68,33,30.29,30.18,0,0,0,0.00
2012-9-12,88,68,50,63,55,48,95,67,36,30.29,30.18,0,0,0,0.00
2012-9-13,88,71,58,64,59,56,95,69,40,30.29,30.18,0,0,0,0.00
2012-9-14,80,63,50,66,57,47,95,81,55,30.29,30.17,0,0,0,0.00
2012-9-15,78,60,45,54,47,42,96,69,32,30.33,30.18,0,0,0,0.00
2012-9-16,81,63,49,55,49,44,92,63,29,30.18,30.03,0,0,0,0.00
2012-9-17,80,65,50,64,55,47,93,74,45,30.06,29.79,0,0,0,0.01
2012-9-18,70,63,52,64,53,42,96,72,55,29.99,29.64,0,0,0,0.07
2012-9-19,72,55,39,44,40,34,94,62,28,30.18,29.99,18,1,18,0.00
2012-9-20,80,60,42,54,47,39,90,64,33,30.09,29.91,21,2,21,0.00
2012-9-21,70,62,53,58,50,40,92,67,35,29.99,29.69,24,1,24,0.13
2012-9-22,73,58,45,57,48,33,96,74,39,30.13,29.72,34,4,34,0.36
2012-9-23,68,51,38,47,40,36,95,68,37,30.24,30.13,16,2,16,0.00
2012-9-24,70,53,36,44,38,33,94,63,27,30.29,30.07,16,2,16,0.00
2012-9-25,67,56,45,58,49,39,94,78,55,30.08,29.96,19,2,19,0.02
2012-9-26,76,65,58,66,62,56,96,89,67,30.10,29.96,0,0,0,0.16
2012-9-27,68,63,56,65,61,53,97,95,91,30.15,30.06,0,0,0,0.01
2012-9-28,71,59,53,56,53,49,94,80,51,30.14,30.05,0,0,0,0.01
2012-9-29,73,58,46,54,50,44,96,76,47,30.09,29.94,0,0,0,0.00
2012-9-30,73,57,43,54,46,41,96,71,38,29.94,29.84,0,0,0,0.00
2012-10-1,66,56,46,53,49,44,95,79,59,29.92,29.74,0,0,0,0.30
2012-10-2,82,65,55,71,61,53,96,89,65,29.88,29.71,0,0,0,0.25
2012-10-3,71,62,59,60,57,54,98,84,59,30.13,29.87,0,0,0,0.25
2012-10-4,78,64,49,60,55,48,97,75,47,30.20,30.11,0,0,0,0.00
2012-10-5,77,62,47,63,55,45,95,79,55,30.12,29.92,0,0,0,0.10
2012-10-6,61,49,40,45,39,33,95,72,39,30.14,29.96,0,0,0,0.56
2012-10-7,53,46,42,44,38,36,84,73,61,30.20,30.10,0,0,0,0.01
2012-10-8,58,44,33,42,36,31,94,76,50,30.29,30.17,0,0,0,0.01
2012-10-9,64,46,32,46,38,31,97,77,48,30.22,29.99,0,0,0,0.01
2012-10-10,61,48,35,47,39,30,92,73,42,30.24,29.92,0,0,0,0.00
2012-10-11,63,44,30,36,32,27,93,67,32,30.33,30.17,0,0,0,0.00
2012-10-12,61,48,38,42,36,30,86,64,35,30.40,30.19,0,0,0,0.00
2012-10-13,71,54,34,56,42,30,88,68,48,30.39,30.03,0,0,0,0.00
2012-10-14,77,67,60,61,59,54,91,75,55,30.03,29.67,0,0,0,0.45
2012-10-15,62,54,49,57,48,42,94,81,68,29.95,29.70,0,0,0,0.47
2012-10-16,65,50,37,46,40,35,93,71,43,30.03,29.83,0,0,0,0.01
2012-10-17,77,60,49,53,48,41,77,64,40,29.86,29.62,0,0,0,0.00
2012-10-18,65,58,44,53,42,32,89,57,33,29.73,29.50,0,0,0,0.10
2012-10-19,59,50,43,46,44,36,94,81,51,29.70,29.57,0,0,0,0.17
2012-10-20,57,48,41,49,43,38,96,84,62,29.99,29.70,0,0,0,0.01
2012-10-21,65,48,34,50,42,32,97,81,50,30.17,29.99,0,0,0,0.01
2012-10-22,80,59,41,58,49,40,96,74,44,30.17,30.03,0,0,0,0.00
2012-10-23,80,67,57,58,53,49,86,61,40,30.06,29.97,0,0,0,0.01
2012-10-24,82,68,58,61,56,51,94,68,41,30.11,30.01,0,0,0,0.10
2012-10-25,82,64,48,58,52,46,95,68,41,30.07,29.94,0,0,0,0.00
2012-10-26,62,54,47,54,49,45,95,84,69,30.13,29.96,0,0,0,0.25
2012-10-27,50,48,44,46,44,42,95,89,77,30.12,30.01,0,0,0,0.49
2012-10-28,47,44,39,42,39,37,93,85,74,30.10,29.98,0,0,0,0.36
2012-10-29,41,38,36,38,36,34,93,91,87,30.01,29.60,0,0,0,0.07
2012-10-30,39,37,34,37,35,32,94,92,89,29.61,29.39,0,0,0,0.08
2012-10-31,42,40,38,40,38,36,95,93,86,29.77,29.57,0,0,0,0.08
2012-11-1,52,44,39,41,37,33,95,79,55,29.83,29.76,0,0,0,0.16
2012-11-2,49,42,35,35,32,27,80,67,54,30.10,29.82,0,0,0,0.00
2012-11-3,49,43,40,36,33,31,79,69,59,30.20,30.10,0,0,0,0.00
2012-11-4,47,40,30,37,33,28,92,77,61,30.18,30.13,0,0,0,0.00
2012-11-5,49,37,26,36,29,24,93,76,50,30.22,30.13,0,0,0,0.00
2012-11-6,51,37,25,36,29,22,91,75,47,30.15,29.94,0,0,0,0.00
2012-11-7,56,42,34,38,33,30,87,71,47,30.12,29.92,0,0,0,0.00
2012-11-8,53,38,27,39,32,25,94,80,54,30.26,30.12,0,0,0,0.00
2012-11-9,60,43,28,44,35,26,94,75,50,30.29,30.15,0,0,0,0.00
2012-11-10,73,57,46,50,43,37,84,60,39,30.21,30.11,0,0,0,0.02
2012-11-11,70,56,41,44,39,36,84,54,32,30.28,30.09,0,0,0,0.00
2012-11-12,62,48,30,54,41,28,93,80,45,30.40,30.01,0,0,0,0.27
2012-11-13,44,34,27,31,27,24,92,76,56,30.56,30.40,0,0,0,0.27
2012-11-14,44,33,23,31,27,21,92,77,58,30.60,30.42,0,0,0,0.00
2012-11-15,50,36,25,34,29,22,92,76,50,30.43,30.33,0,0,0,0.00
2012-11-16,53,39,29,40,33,26,94,79,54,30.52,30.38,0,0,0,0.01
2012-11-17,59,41,29,39,31,27,93,72,37,30.61,30.49,0,0,0,0.00
2012-11-18,59,40,27,35,29,24,91,68,32,30.52,30.42,0,0,0,0.00
2012-11-19,58,41,29,40,33,25,89,75,50,30.43,30.22,0,0,0,0.00
2012-11-20,55,45,36,43,39,33,91,80,61,30.22,30.10,0,0,0,0.00
2012-11-21,63,48,37,44,40,34,94,75,44,30.26,30.14,0,0,0,0.00
2012-11-22,65,47,31,45,38,29,95,73,44,30.24,30.00,0,0,0,0.00
2012-11-23,54,50,44,48,42,36,87,75,68,30.01,29.89,0,0,0,0.01
2012-11-24,46,38,29,31,28,24,89,68,50,30.19,29.92,0,0,0,0.00
2012-11-25,51,42,34,32,30,28,86,62,45,30.25,30.17,0,0,0,0.00
2012-11-27,34,29,24,28,22,19,84,74,65,30.35,30.27,0,0,0,0.00
2012-11-28,45,31,21,28,23,17,89,73,46,30.42,30.32,0,0,0,0.00
2012-11-29,50,33,21,32,24,18,91,72,40,30.44,30.29,0,0,0,0.00
2012-11-30,59,44,32,40,34,26,86,67,44,30.29,30.17,0,0,0,0.00
2012-12-1,62,47,35,48,41,32,92,79,58,30.29,30.17,0,0,0,0.00
2012-12-2,57,55,51,55,51,44,96,87,72,30.18,30.04,0,0,0,0.42
2012-12-3,64,58,56,60,56,53,97,93,84,30.17,30.08,0,0,0,0.01
2012-12-4,63,55,40,59,51,38,93,87,80,30.18,29.97,0,0,0,0.59
2012-12-5,43,37,28,38,32,24,95,83,67,30.38,30.17,0,0,0,0.60
2012-12-6,47,36,26,40,30,22,88,78,62,30.36,30.02,0,0,0,0.00
2012-12-7,51,47,43,50,46,40,98,96,88,30.02,29.84,0,0,0,0.35
2012-12-8,54,50,42,53,48,40,98,95,88,30.08,29.83,0,0,0,0.05
2012-12-9,57,47,41,56,45,37,97,93,87,30.09,29.69,0,0,0,0.54
2012-12-10,56,43,34,55,41,31,97,93,87,29.91,29.65,0,0,0,0.68
2012-12-11,36,33,26,32,29,23,93,86,72,30.28,29.91,0,0,0,0.01
2012-12-12,43,30,20,31,24,18,94,82,57,30.45,30.28,0,0,0,0.01
2012-12-13,47,31,20,32,25,18,94,80,50,30.47,30.30,0,0,0,0.00
2012-12-14,53,35,23,36,28,21,94,78,46,30.34,30.21,0,0,0,0.01
2012-12-15,51,42,33,41,35,29,90,79,63,30.22,29.82,0,0,0,0.01
2012-12-16,62,54,47,55,49,41,95,84,73,29.83,29.66,0,0,0,0.01
2012-12-17,52,45,40,49,44,39,100,95,90,29.75,29.55,0,0,0,0.35
2012-12-18,45,40,37,41,36,34,97,88,70,29.85,29.58,0,0,0,0.35
2012-12-19,47,42,38,40,38,35,90,85,75,30.13,29.76,0,0,0,0.00
2012-12-20,49,43,35,48,39,28,96,87,73,30.05,29.28,0,0,0,0.87
2012-12-21,35,32,29,30,28,27,93,88,77,29.96,29.44,0,0,0,0.01
2012-12-22,32,29,22,28,24,19,89,84,76,30.21,29.96,0,0,0,0.01
2012-12-23,43,30,19,32,24,17,94,81,62,30.12,29.97,0,0,0,0.01
2012-12-24,35,32,24,34,29,22,97,91,84,30.02,29.79,0,0,0,0.06
2012-12-25,36,34,32,32,30,27,96,86,77,30.23,30.00,0,0,0,0.01
2012-12-26,34,32,28,32,29,26,94,89,79,30.13,29.58,0,0,0,0.07
2012-12-27,32,28,24,27,25,20,92,88,83,30.21,29.84,0,0,0,0.08
2012-12-28,37,29,24,30,26,22,94,88,74,30.22,29.89,0,0,0,0.13
2012-12-29,32,30,27,31,28,24,95,92,87,30.15,29.74,0,0,0,0.13
2012-12-30,28,25,19,24,21,16,90,86,74,30.45,30.14,0,0,0,0.01
2012-12-31,35,28,18,32,25,15,94,90,75,30.38,30.08,0,0,0,0.01
2013-1-1,33,29,20,32,25,15,95,85,71,30.18,30.04,0,0,0,0.00